Time;durP1;ratioP1;P1;durP2;ratioP2;P2;SDS_P1;SDS_P2;PMS_P1;PMS_P2;Temp;Humidity;BMP_temperature;BMP_pressure;BME280_temperature;BME280_humidity;BME280_pressure;Samples;Min_cycle;Max_cycle;Signal;HPM_P1;HPM_P2
2021/12/02 00:01:18;;;;;;;16.37;10.07;;;;;;;6.21;100.00;98702.09;5000159;28;21821;-52
2021/12/02 00:03:45;;;;;;;14.93;10.20;;;;;;;6.21;100.00;98689.25;5004621;28;20200;-53
2021/12/02 00:06:13;;;;;;;19.30;12.80;;;;;;;6.26;100.00;98686.63;5001453;28;20216;-53
2021/12/02 00:08:39;;;;;;;14.43;9.53;;;;;;;6.25;100.00;98687.50;4999684;28;20193;-52
2021/12/02 00:11:06;;;;;;;8.30;6.47;;;;;;;6.27;100.00;98692.59;4997773;28;20192;-52
2021/12/02 00:13:42;;;;;;;6.20;4.93;;;;;;;6.28;100.00;98694.31;5001298;28;20188;-53
2021/12/02 00:16:20;;;;;;;5.10;3.80;;;;;;;6.29;100.00;98694.28;4996604;28;20524;-51
2021/12/02 00:21:21;;;;;;;3.47;2.90;;;;;;;6.30;100.00;98690.00;4995020;28;20574;-52
2021/12/02 00:24:06;;;;;;;3.30;2.60;;;;;;;6.31;100.00;98689.13;5003284;28;20191;-54
2021/12/02 00:26:34;;;;;;;3.60;2.10;;;;;;;6.28;100.00;98684.03;4996002;28;20235;-53
2021/12/02 00:29:01;;;;;;;3.50;1.90;;;;;;;6.24;100.00;98686.66;5014337;28;20190;-53
2021/12/02 00:31:30;;;;;;;1.10;1.00;;;;;;;6.20;100.00;98685.00;4995723;28;20669;-53
2021/12/02 00:33:58;;;;;;;2.20;1.20;;;;;;;6.18;100.00;98680.78;4998289;28;20190;-53
2021/12/02 00:36:26;;;;;;;1.10;0.97;;;;;;;6.16;100.00;98687.66;5004609;28;20733;-53
2021/12/02 00:38:53;;;;;;;0.93;0.93;;;;;;;6.15;100.00;98693.66;5010198;28;20191;-53
2021/12/02 00:41:21;;;;;;;1.30;1.20;;;;;;;6.15;100.00;98691.94;5000425;28;20224;-52
2021/12/02 00:43:49;;;;;;;2.10;1.67;;;;;;;6.15;100.00;98696.22;5000390;28;20189;-53
2021/12/02 00:46:18;;;;;;;1.43;1.23;;;;;;;6.12;100.00;98693.72;4993896;28;20211;-53
2021/12/02 00:48:45;;;;;;;1.40;1.10;;;;;;;6.08;100.00;98695.47;4999876;28;20274;-54
2021/12/02 00:51:11;;;;;;;1.40;0.80;;;;;;;6.05;100.00;98695.56;4999082;28;20197;-52
2021/12/02 00:53:44;;;;;;;2.20;1.00;;;;;;;6.05;100.00;98701.53;5003045;28;20618;-54
2021/12/02 00:56:15;;;;;;;1.77;1.07;;;;;;;6.06;100.00;98699.78;5004078;28;20289;-52
2021/12/02 00:58:44;;;;;;;1.73;0.90;;;;;;;6.04;100.00;98702.41;4996255;28;20189;-54
2021/12/02 01:01:11;;;;;;;0.90;0.60;;;;;;;6.06;100.00;98702.34;5002961;28;20485;-53
2021/12/02 01:03:38;;;;;;;1.47;0.90;;;;;;;6.08;100.00;98706.63;5000403;28;20188;-53
2021/12/02 01:06:05;;;;;;;1.07;0.70;;;;;;;6.08;100.00;98706.63;4995417;28;20319;-53
2021/12/02 01:08:32;;;;;;;2.17;0.90;;;;;;;6.07;100.00;98710.06;5009495;28;20683;-51
2021/12/02 01:10:58;;;;;;;0.90;0.63;;;;;;;6.05;100.00;98708.41;5000564;28;20188;-52
2021/12/02 01:13:23;;;;;;;0.90;0.63;;;;;;;6.01;100.00;98692.16;5004483;28;20223;-53
2021/12/02 01:15:50;;;;;;;1.80;1.10;;;;;;;5.95;100.00;98711.06;4995131;28;20193;-53
2021/12/02 01:18:16;;;;;;;1.23;0.90;;;;;;;5.89;100.00;98712.88;5002445;28;20502;-53
2021/12/02 01:20:44;;;;;;;1.07;0.73;;;;;;;5.84;100.00;98706.94;4995968;28;20204;-54
2021/12/02 01:23:11;;;;;;;1.30;0.93;;;;;;;5.82;100.00;98713.84;4995730;28;20185;-55
2021/12/02 01:25:37;;;;;;;1.20;0.93;;;;;;;5.82;100.00;98717.25;5005146;28;20686;-53
2021/12/02 01:28:02;;;;;;;1.00;0.90;;;;;;;5.82;100.00;98722.38;5005372;28;20227;-53
2021/12/02 01:30:29;;;;;;;1.43;0.90;;;;;;;5.82;100.00;98716.41;5000965;28;20199;-54
2021/12/02 01:33:06;;;;;;;1.27;0.80;;;;;;;5.80;100.00;98716.41;5001797;28;20211;-53
2021/12/02 01:35:34;;;;;;;2.00;0.70;;;;;;;5.75;100.00;98721.63;5005913;28;20281;-53
2021/12/02 01:38:00;;;;;;;1.53;1.03;;;;;;;5.73;100.00;98725.09;5002806;28;20282;-53
2021/12/02 01:40:26;;;;;;;1.47;0.60;;;;;;;5.72;100.00;98720.84;5005583;28;20958;-54
2021/12/02 01:42:57;;;;;;;0.77;0.70;;;;;;;5.74;100.00;98724.22;5005867;28;20277;-53
2021/12/02 01:45:26;;;;;;;1.60;1.00;;;;;;;5.73;100.00;98725.09;5006954;28;20205;-53
2021/12/02 01:47:53;;;;;;;1.50;0.93;;;;;;;5.73;100.00;98723.38;5006432;28;20298;-53
2021/12/02 01:50:23;;;;;;;1.30;0.90;;;;;;;5.73;100.00;98728.50;5006248;28;20531;-53
2021/12/02 01:52:54;;;;;;;1.43;0.77;;;;;;;5.72;100.00;98728.53;5008763;28;20208;-51
2021/12/02 01:55:20;;;;;;;1.20;0.67;;;;;;;5.73;100.00;98727.66;5012851;28;20266;-53
2021/12/02 01:57:58;;;;;;;1.13;0.77;;;;;;;5.71;100.00;98719.97;5005798;28;20246;-52
2021/12/02 02:00:27;;;;;;;1.00;0.90;;;;;;;5.69;100.00;98723.44;5005097;28;20593;-52
2021/12/02 02:02:53;;;;;;;1.13;0.70;;;;;;;5.68;100.00;98716.59;5007830;28;20216;-51
2021/12/02 02:05:19;;;;;;;2.13;0.90;;;;;;;5.66;100.00;98721.78;5007405;28;20216;-52
2021/12/02 02:07:54;;;;;;;1.83;0.93;;;;;;;5.62;100.00;98720.94;5022355;28;20431;-53
2021/12/02 02:10:20;;;;;;;0.80;0.70;;;;;;;5.58;100.00;98723.59;5004673;28;20184;-53
2021/12/02 02:12:47;;;;;;;3.23;0.87;;;;;;;5.57;100.00;98719.31;5007431;28;20546;-53
2021/12/02 02:15:13;;;;;;;1.67;0.73;;;;;;;5.54;100.00;98721.91;5006469;28;20199;-53
2021/12/02 02:17:57;;;;;;;1.50;0.80;;;;;;;5.49;100.00;98717.72;5007061;28;20302;-52
2021/12/02 02:20:40;;;;;;;1.10;0.70;;;;;;;5.48;100.00;98725.41;5003859;28;20199;-54
2021/12/02 02:23:09;;;;;;;0.90;0.50;;;;;;;5.48;100.00;98717.72;5000298;28;20189;-52
2021/12/02 02:25:34;;;;;;;1.83;1.00;;;;;;;5.47;100.00;98709.19;4999662;28;20196;-53
2021/12/02 02:28:00;;;;;;;0.73;0.73;;;;;;;5.44;100.00;98710.97;4999464;28;20262;-53
2021/12/02 02:30:25;;;;;;;1.27;0.70;;;;;;;5.38;100.00;98706.72;5004199;28;20615;-52
2021/12/02 02:32:51;;;;;;;1.13;0.90;;;;;;;5.36;100.00;98708.50;5004362;28;20609;-54
2021/12/02 02:35:16;;;;;;;1.70;0.80;;;;;;;5.32;100.00;98712.78;4999007;28;20721;-53
2021/12/02 02:37:42;;;;;;;1.53;0.70;;;;;;;5.29;100.00;98715.44;5006484;28;20199;-53
2021/12/02 02:40:09;;;;;;;0.93;0.70;;;;;;;5.27;100.00;98708.59;5000995;28;20194;-55
2021/12/02 02:42:35;;;;;;;0.83;0.80;;;;;;;5.24;100.00;98700.94;5005528;28;20188;-53
2021/12/02 02:45:01;;;;;;;1.03;0.60;;;;;;;5.18;100.00;98705.28;5009235;28;20594;-53
2021/12/02 02:47:27;;;;;;;2.00;0.60;;;;;;;5.11;100.00;98705.38;5000733;28;20604;-52
2021/12/02 02:49:54;;;;;;;1.40;0.77;;;;;;;5.11;100.00;98703.66;5002632;28;20411;-52
2021/12/02 02:52:19;;;;;;;1.43;0.50;;;;;;;5.09;100.00;98707.13;5001380;28;20184;-51
2021/12/02 02:54:46;;;;;;;1.20;0.60;;;;;;;5.06;100.00;98699.47;5001266;28;20247;-53
2021/12/02 02:57:14;;;;;;;0.73;0.60;;;;;;;5.02;100.00;98703.78;5002393;28;20659;-52
2021/12/02 03:00:06;;;;;;;0.80;0.70;;;;;;;4.99;100.00;98704.66;5008443;28;20188;-51
2021/12/02 03:02:59;;;;;;;0.83;0.63;;;;;;;5.00;100.00;98708.91;5007047;28;20728;-52
2021/12/02 03:05:30;;;;;;;0.50;0.40;;;;;;;5.04;100.00;98714.88;5004386;28;20211;-52
2021/12/02 03:08:09;;;;;;;1.43;0.77;;;;;;;5.09;100.00;98715.66;5005196;28;20211;-52
2021/12/02 03:13:40;;;;;;;2.53;0.80;;;;;;;5.18;100.00;98715.56;5004536;28;20192;-52
2021/12/02 03:18:39;;;;;;;0.60;0.50;;;;;;;5.27;100.00;98716.28;5004499;28;20585;-53
2021/12/02 03:21:17;;;;;;;1.00;0.70;;;;;;;5.30;100.00;98711.97;5003158;28;20196;-51
2021/12/02 03:23:54;;;;;;;0.87;0.80;;;;;;;5.33;100.00;98714.50;5010355;28;20194;-51
2021/12/02 03:26:20;;;;;;;1.13;0.60;;;;;;;5.37;100.00;98714.47;5002199;28;20211;-52
2021/12/02 03:28:47;;;;;;;1.00;0.60;;;;;;;5.38;100.00;98719.56;4999149;28;20198;-53
2021/12/02 03:31:13;;;;;;;2.00;0.83;;;;;;;5.42;100.00;98712.69;5002623;28;20192;-50
2021/12/02 03:33:39;;;;;;;1.60;0.77;;;;;;;5.44;100.00;98714.34;4998939;28;20673;-52
2021/12/02 03:36:04;;;;;;;1.63;0.90;;;;;;;5.46;100.00;98715.19;5002249;28;20191;-53
2021/12/02 03:38:29;;;;;;;1.73;0.70;;;;;;;5.48;100.00;98710.03;5007080;28;20196;-51
2021/12/02 03:40:55;;;;;;;2.53;1.00;;;;;;;5.45;100.00;98707.50;5003457;28;20237;-55
2021/12/02 03:43:21;;;;;;;1.63;1.00;;;;;;;5.46;100.00;98711.75;5005477;28;20196;-55
2021/12/02 03:45:47;;;;;;;0.87;0.63;;;;;;;5.44;100.00;98705.81;4995563;28;20583;-52
2021/12/02 03:48:12;;;;;;;1.93;0.87;;;;;;;5.40;100.00;98699.03;4997138;28;20215;-54
2021/12/02 03:50:37;;;;;;;2.37;1.20;;;;;;;5.37;100.00;98699.91;5002739;28;20647;-54
2021/12/02 03:53:03;;;;;;;1.20;1.00;;;;;;;5.37;100.00;98696.50;5005563;28;20198;-53
2021/12/02 03:55:28;;;;;;;1.07;0.67;;;;;;;5.33;100.00;98690.56;5005764;28;20199;-53
2021/12/02 03:57:53;;;;;;;1.37;1.07;;;;;;;5.30;100.00;98693.16;5005266;28;20697;-53
2021/12/02 04:00:19;;;;;;;1.67;1.10;;;;;;;5.27;100.00;98688.06;5005780;28;20743;-52
2021/12/02 04:02:44;;;;;;;3.00;1.20;;;;;;;5.23;100.00;98691.53;5002449;28;20230;-52
2021/12/02 04:05:10;;;;;;;1.50;1.00;;;;;;;5.18;100.00;98686.47;4999551;28;20244;-53
2021/12/02 04:07:35;;;;;;;2.47;1.00;;;;;;;5.17;100.00;98685.66;4999852;28;20458;-52
2021/12/02 04:10:01;;;;;;;2.77;1.20;;;;;;;5.18;100.00;98678.78;4996394;28;20191;-53
2021/12/02 04:12:44;;;;;;;2.87;1.30;;;;;;;5.17;100.00;98685.66;5003501;28;20546;-53
2021/12/02 04:15:17;;;;;;;2.07;1.00;;;;;;;5.15;100.00;98697.63;5004836;28;20193;-52
2021/12/02 04:17:43;;;;;;;2.60;1.17;;;;;;;5.10;100.00;98696.84;5000479;28;20211;-52
2021/12/02 04:20:16;;;;;;;1.97;1.50;;;;;;;5.12;100.00;98694.25;4998179;28;20194;-53
2021/12/02 04:22:43;;;;;;;3.13;1.50;;;;;;;5.10;100.00;98685.75;4998761;28;20237;-52
2021/12/02 04:25:10;;;;;;;2.83;1.27;;;;;;;5.12;100.00;98692.53;5001762;28;20245;-53
2021/12/02 04:27:36;;;;;;;3.43;1.20;;;;;;;5.13;100.00;98695.97;5000825;28;20220;-52
2021/12/02 04:30:05;;;;;;;2.47;1.03;;;;;;;5.14;100.00;98687.41;4996848;28;20203;-53
2021/12/02 04:32:31;;;;;;;1.80;1.20;;;;;;;5.10;100.00;98691.69;4989499;28;20190;-53
2021/12/02 04:34:56;;;;;;;1.80;1.23;;;;;;;5.10;100.00;98699.41;4997333;28;20188;-53
2021/12/02 04:37:22;;;;;;;1.43;1.03;;;;;;;5.10;100.00;98704.53;5006039;28;20207;-50
2021/12/02 04:39:47;;;;;;;3.60;1.07;;;;;;;5.07;100.00;98706.28;5007184;28;20243;-52
2021/12/02 04:42:13;;;;;;;1.30;1.00;;;;;;;5.04;100.00;98700.31;4999031;28;20597;-52
2021/12/02 04:44:38;;;;;;;1.43;0.83;;;;;;;5.06;100.00;98699.47;5001478;28;20224;-52
2021/12/02 04:47:03;;;;;;;1.53;0.80;;;;;;;5.07;100.00;98701.16;4999025;28;20243;-52
2021/12/02 04:49:29;;;;;;;1.20;0.80;;;;;;;5.10;100.00;98706.25;4997103;28;20639;-53
2021/12/02 04:51:55;;;;;;;1.60;0.70;;;;;;;5.12;100.00;98702.78;4998198;28;20202;-53
2021/12/02 04:54:20;;;;;;;2.70;0.73;;;;;;;5.13;100.00;98698.53;4995173;28;20650;-53
2021/12/02 04:56:45;;;;;;;1.53;0.77;;;;;;;5.15;100.00;98695.06;4999266;28;20294;-54
2021/12/02 04:59:11;;;;;;;1.60;0.80;;;;;;;5.16;100.00;98695.91;5003551;28;20240;-51
2021/12/02 05:01:36;;;;;;;2.23;0.90;;;;;;;5.16;100.00;98699.34;5006862;28;20586;-53
2021/12/02 05:04:02;;;;;;;1.77;0.87;;;;;;;5.13;100.00;98701.94;5008321;28;20213;-53
2021/12/02 05:06:27;;;;;;;1.37;0.60;;;;;;;5.09;100.00;98702.81;4997157;28;20263;-52
2021/12/02 05:08:53;;;;;;;1.30;0.97;;;;;;;5.09;100.00;98712.25;4999542;28;20261;-52
2021/12/02 05:11:18;;;;;;;0.97;0.67;;;;;;;5.11;100.00;98707.94;5004043;28;20261;-53
2021/12/02 05:13:43;;;;;;;3.03;1.10;;;;;;;5.13;100.00;98712.19;5008376;28;20384;-53
2021/12/02 05:16:09;;;;;;;1.10;0.83;;;;;;;5.14;100.00;98713.88;5014076;28;20208;-52
2021/12/02 05:18:34;;;;;;;3.47;1.00;;;;;;;5.15;100.00;98709.59;5012407;28;20222;-52
2021/12/02 05:21:00;;;;;;;0.97;0.80;;;;;;;5.14;100.00;98710.50;5011396;28;20199;-52
2021/12/02 05:23:25;;;;;;;1.70;0.70;;;;;;;5.14;100.00;98711.31;4999453;28;20212;-52
2021/12/02 05:25:51;;;;;;;1.40;0.80;;;;;;;5.15;100.00;98705.31;5012955;28;20202;-53
2021/12/02 05:28:18;;;;;;;1.47;0.80;;;;;;;5.14;100.00;98700.22;5011715;28;20195;-52
2021/12/02 05:30:45;;;;;;;0.93;0.77;;;;;;;5.12;100.00;98699.41;5003705;28;20233;-51
2021/12/02 05:33:11;;;;;;;2.50;1.03;;;;;;;5.07;100.00;98696.03;5011441;28;21700;-52
2021/12/02 05:35:36;;;;;;;2.87;0.80;;;;;;;4.98;100.00;98692.72;5008891;28;20210;-52
2021/12/02 05:38:02;;;;;;;0.90;0.50;;;;;;;4.94;100.00;98688.50;5005456;28;20730;-52
2021/12/02 05:40:27;;;;;;;1.20;0.70;;;;;;;4.92;100.00;98684.22;5002944;28;20212;-53
2021/12/02 05:42:52;;;;;;;1.57;0.90;;;;;;;4.90;100.00;98681.69;4996117;28;20197;-53
2021/12/02 05:45:18;;;;;;;1.07;0.77;;;;;;;4.89;100.00;98682.56;4998505;28;20624;-53
2021/12/02 05:47:43;;;;;;;0.90;0.70;;;;;;;4.88;100.00;98673.16;5004638;28;20326;-51
2021/12/02 05:50:09;;;;;;;1.37;0.70;;;;;;;4.85;100.00;98673.19;4999162;28;20191;-52
2021/12/02 05:52:35;;;;;;;1.33;0.90;;;;;;;4.78;100.00;98659.59;5009317;28;20229;-54
2021/12/02 05:55:00;;;;;;;1.40;1.07;;;;;;;4.67;100.00;98662.31;5014025;28;20197;-55
2021/12/02 05:57:26;;;;;;;1.87;0.87;;;;;;;4.56;100.00;98669.25;5007473;28;20239;-54
2021/12/02 05:59:51;;;;;;;2.30;1.10;;;;;;;4.50;100.00;98666.78;5009869;28;20195;-55
2021/12/02 06:02:16;;;;;;;1.87;1.00;;;;;;;4.48;100.00;98668.50;5010336;28;20649;-53
2021/12/02 06:04:43;;;;;;;2.33;1.10;;;;;;;4.49;100.00;98668.47;5009152;28;20658;-54
2021/12/02 06:07:08;;;;;;;2.30;1.17;;;;;;;4.54;100.00;98668.41;5001865;28;20676;-54
2021/12/02 06:09:33;;;;;;;1.20;0.90;;;;;;;4.52;100.00;98665.03;4997769;28;20296;-52
2021/12/02 06:11:59;;;;;;;2.30;1.10;;;;;;;4.50;100.00;98661.66;4993833;28;20232;-52
2021/12/02 06:14:24;;;;;;;2.10;0.83;;;;;;;4.51;100.00;98673.59;5001326;28;20251;-52
2021/12/02 06:16:50;;;;;;;1.20;0.80;;;;;;;4.52;100.00;98667.59;4994056;28;20291;-55
2021/12/02 06:19:15;;;;;;;1.03;0.90;;;;;;;4.53;100.00;98661.63;5013562;28;20530;-53
2021/12/02 06:21:40;;;;;;;2.83;1.13;;;;;;;4.54;100.00;98664.16;4995330;28;20284;-53
2021/12/02 06:24:07;;;;;;;1.30;0.80;;;;;;;4.55;100.00;98659.88;4999216;28;20724;-54
2021/12/02 06:26:33;;;;;;;1.10;1.00;;;;;;;4.56;100.00;98665.00;4996928;28;20871;-53
2021/12/02 06:28:59;;;;;;;2.47;1.10;;;;;;;4.57;100.00;98664.13;5004539;28;20270;-52
2021/12/02 06:31:24;;;;;;;2.73;1.60;;;;;;;4.57;100.00;98664.13;5019419;28;20185;-51
2021/12/02 06:33:50;;;;;;;1.37;1.03;;;;;;;4.55;100.00;98665.84;5027188;28;20192;-51
2021/12/02 06:36:15;;;;;;;1.50;1.20;;;;;;;4.56;100.00;98671.81;5016873;28;20208;-52
2021/12/02 06:38:42;;;;;;;1.73;1.20;;;;;;;4.60;100.00;98675.22;5005771;28;20192;-53
2021/12/02 06:41:08;;;;;;;3.00;1.50;;;;;;;4.61;100.00;98670.06;5010624;28;20673;-52
2021/12/02 06:43:33;;;;;;;1.40;1.10;;;;;;;4.67;100.00;98671.69;5005980;28;20197;-53
2021/12/02 06:45:58;;;;;;;2.43;1.47;;;;;;;4.73;100.00;98679.34;5008235;28;20725;-52
2021/12/02 06:48:24;;;;;;;2.83;1.37;;;;;;;4.77;100.00;98677.56;5019671;28;20180;-53
2021/12/02 06:50:49;;;;;;;2.87;1.40;;;;;;;4.83;100.00;98670.66;5005241;28;20651;-51
2021/12/02 06:53:17;;;;;;;4.30;1.63;;;;;;;4.83;100.00;98678.34;5014456;28;20191;-51
2021/12/02 06:55:42;;;;;;;1.77;1.53;;;;;;;4.84;100.00;98674.09;5008944;28;20663;-52
2021/12/02 06:58:08;;;;;;;1.93;1.57;;;;;;;4.83;100.00;98680.09;5011324;28;20219;-53
2021/12/02 07:00:33;;;;;;;1.77;1.60;;;;;;;4.86;100.00;98686.00;5012012;28;20689;-51
2021/12/02 07:03:01;;;;;;;2.53;1.73;;;;;;;4.90;100.00;98683.44;5017544;28;20203;-52
2021/12/02 07:05:27;;;;;;;2.80;1.83;;;;;;;4.96;100.00;98684.19;5006237;28;20478;-52
2021/12/02 07:07:53;;;;;;;2.40;1.67;;;;;;;4.98;100.00;98673.91;5006912;28;20577;-53
2021/12/02 07:10:23;;;;;;;2.37;1.70;;;;;;;5.00;100.00;98682.44;5018676;28;20190;-53
2021/12/02 07:12:52;;;;;;;3.13;1.97;;;;;;;5.02;100.00;98683.28;5034771;28;20195;-53
2021/12/02 07:15:21;;;;;;;3.37;2.20;;;;;;;4.98;100.00;98679.03;5005895;28;20192;-54
2021/12/02 07:17:53;;;;;;;3.50;2.93;;;;;;;4.97;100.00;98682.47;4991485;28;20208;-52
2021/12/02 07:20:19;;;;;;;5.00;2.70;;;;;;;4.97;100.00;98687.59;5014233;28;20191;-53
2021/12/02 07:22:44;;;;;;;3.43;2.13;;;;;;;4.98;100.00;98690.16;5011523;28;20180;-54
2021/12/02 07:25:10;;;;;;;2.40;1.67;;;;;;;5.02;100.00;98693.53;5011668;28;20760;-51
2021/12/02 07:27:36;;;;;;;3.10;2.03;;;;;;;5.05;100.00;98698.63;5010245;28;20804;-53
2021/12/02 07:30:03;;;;;;;3.33;2.23;;;;;;;5.07;100.00;98689.16;5007078;28;20198;-55
2021/12/02 07:32:35;;;;;;;2.03;1.77;;;;;;;5.12;100.00;98695.09;5006659;28;20199;-54
2021/12/02 07:35:04;;;;;;;2.90;1.87;;;;;;;5.15;100.00;98695.06;5006853;28;20287;-54
2021/12/02 07:37:30;;;;;;;2.73;1.90;;;;;;;5.18;100.00;98701.88;5011047;28;20205;-51
2021/12/02 07:39:56;;;;;;;2.73;1.90;;;;;;;5.23;100.00;98710.34;4999058;28;20659;-52
2021/12/02 07:42:22;;;;;;;2.47;1.77;;;;;;;5.23;100.00;98707.78;4987611;28;20309;-52
2021/12/02 07:44:48;;;;;;;4.07;2.40;;;;;;;5.29;100.00;98704.31;5009549;28;20601;-53
2021/12/02 07:47:13;;;;;;;2.63;1.90;;;;;;;5.30;100.00;98711.97;5016931;28;20207;-53
2021/12/02 07:49:39;;;;;;;4.00;2.03;;;;;;;5.32;100.00;98712.78;4998000;28;20199;-52
2021/12/02 07:52:07;;;;;;;2.40;1.80;;;;;;;5.34;100.00;98705.09;5010907;28;20555;-53
2021/12/02 07:54:33;;;;;;;3.07;1.83;;;;;;;5.36;100.00;98710.19;5018534;28;20236;-54
2021/12/02 07:56:59;;;;;;;3.43;1.97;;;;;;;5.37;100.00;98711.91;5011409;28;20212;-54
2021/12/02 07:59:25;;;;;;;2.17;1.60;;;;;;;5.40;100.00;98715.25;5014317;28;20218;-52
2021/12/02 08:01:51;;;;;;;4.27;2.07;;;;;;;5.43;100.00;98715.22;5016685;28;20230;-52
2021/12/02 08:04:16;;;;;;;2.13;1.83;;;;;;;5.44;100.00;98721.22;4986901;28;20182;-51
2021/12/02 08:06:42;;;;;;;2.47;2.00;;;;;;;5.44;100.00;98718.66;4997140;28;20202;-52
2021/12/02 08:09:12;;;;;;;2.90;1.87;;;;;;;5.49;100.00;98711.72;5010751;28;20188;-52
2021/12/02 08:11:38;;;;;;;3.10;2.13;;;;;;;5.53;100.00;98722.78;5066075;28;20209;-53
2021/12/02 08:14:07;;;;;;;3.20;2.03;;;;;;;5.59;100.00;98722.72;5006138;28;20707;-53
2021/12/02 08:16:33;;;;;;;4.00;2.20;;;;;;;5.62;100.00;98718.38;5001992;28;20193;-53
2021/12/02 08:19:01;;;;;;;2.40;1.83;;;;;;;5.63;100.00;98727.78;5009674;28;20649;-53
2021/12/02 08:21:26;;;;;;;2.67;1.87;;;;;;;5.63;100.00;98726.94;5022205;28;20244;-53
2021/12/02 08:23:51;;;;;;;2.10;1.70;;;;;;;5.65;100.00;98730.34;4996765;28;20192;-52
2021/12/02 08:26:17;;;;;;;2.23;1.63;;;;;;;5.63;100.00;98738.03;4986473;28;20223;-53
2021/12/02 08:28:42;;;;;;;5.47;3.97;;;;;;;5.61;100.00;98744.06;5000688;28;20228;-53
2021/12/02 08:31:07;;;;;;;3.93;2.90;;;;;;;5.60;100.00;98750.06;5015937;28;20223;-51
2021/12/02 08:33:33;;;;;;;4.43;2.43;;;;;;;5.58;100.00;98754.38;5021403;28;20644;-52
2021/12/02 08:35:58;;;;;;;2.47;1.60;;;;;;;5.55;100.00;98762.97;4998478;28;20190;-51
2021/12/02 08:38:31;;;;;;;2.37;1.90;;;;;;;5.52;100.00;98759.59;4992391;28;20273;-53
2021/12/02 08:40:58;;;;;;;3.00;2.27;;;;;;;5.42;100.00;98769.97;4989136;28;20220;-52
2021/12/02 08:43:24;;;;;;;2.17;1.60;;;;;;;5.36;100.00;98769.19;5037380;28;20965;-53
2021/12/02 08:45:49;;;;;;;2.33;1.70;;;;;;;5.32;100.00;98776.94;5019269;28;20209;-52
2021/12/02 08:48:14;;;;;;;1.53;1.40;;;;;;;5.30;100.00;98778.66;4995462;28;20217;-54
2021/12/02 08:50:40;;;;;;;3.00;1.80;;;;;;;5.28;100.00;98777.84;5004131;28;20188;-51
2021/12/02 08:53:07;;;;;;;2.50;1.50;;;;;;;5.27;100.00;98780.41;5004598;28;20192;-53
2021/12/02 08:55:33;;;;;;;1.30;1.20;;;;;;;5.24;100.00;98777.88;5009476;28;20625;-52
2021/12/02 08:58:00;;;;;;;1.87;1.50;;;;;;;5.28;100.00;98779.56;5007999;28;20568;-52
2021/12/02 09:00:35;;;;;;;1.33;1.23;;;;;;;5.30;100.00;98778.66;5014009;28;20203;-52
2021/12/02 09:03:03;;;;;;;1.40;1.20;;;;;;;5.34;100.00;98776.94;5006167;28;20232;-52
2021/12/02 09:05:28;;;;;;;1.43;1.30;;;;;;;5.36;100.00;98782.88;5010350;28;20259;-52
2021/12/02 09:07:54;;;;;;;1.60;1.50;;;;;;;5.38;100.00;98782.84;5006883;28;20229;-52
2021/12/02 09:10:22;;;;;;;1.30;1.20;;;;;;;5.40;100.00;98787.09;5007064;28;20190;-52
2021/12/02 09:12:49;;;;;;;1.30;1.20;;;;;;;5.43;100.00;98788.78;4991719;28;20502;-53
2021/12/02 09:15:15;;;;;;;1.70;1.43;;;;;;;5.46;100.00;98797.28;4991208;28;20205;-53
2021/12/02 09:17:41;;;;;;;1.50;1.40;;;;;;;5.50;100.00;98803.22;5002408;28;20215;-51
2021/12/02 09:20:09;;;;;;;1.77;1.10;;;;;;;5.53;100.00;98803.19;4998012;28;20194;-53
2021/12/02 09:22:35;;;;;;;1.67;1.10;;;;;;;5.55;100.00;98806.59;5007060;28;20194;-52
2021/12/02 09:25:03;;;;;;;1.33;1.20;;;;;;;5.59;100.00;98815.09;5008209;28;20189;-53
2021/12/02 09:27:28;;;;;;;1.93;1.10;;;;;;;5.62;100.00;98815.06;5006311;28;20221;-52
2021/12/02 09:29:53;;;;;;;1.10;1.00;;;;;;;5.62;100.00;98818.47;4990923;28;20234;-53
2021/12/02 09:32:19;;;;;;;1.60;1.27;;;;;;;5.63;100.00;98821.91;4994645;28;20194;-53
2021/12/02 09:34:44;;;;;;;2.10;1.50;;;;;;;5.61;100.00;98821.91;4995601;28;20192;-53
2021/12/02 09:37:10;;;;;;;2.03;1.60;;;;;;;5.62;100.00;98833.03;5000951;28;20839;-52
2021/12/02 09:39:36;;;;;;;2.33;1.60;;;;;;;5.61;100.00;98827.03;4995072;28;20195;-53
2021/12/02 09:42:05;;;;;;;2.57;1.43;;;;;;;5.62;100.00;98827.91;5005487;28;20563;-53
2021/12/02 09:44:30;;;;;;;2.90;1.63;;;;;;;5.61;100.00;98834.75;5010012;28;20193;-54
2021/12/02 09:46:56;;;;;;;1.67;1.30;;;;;;;5.61;100.00;98826.19;4995827;28;20333;-53
2021/12/02 09:49:24;;;;;;;2.03;1.33;;;;;;;5.61;100.00;98828.78;4991924;28;20197;-52
2021/12/02 09:54:24;;;;;;;2.73;1.73;;;;;;;5.58;100.00;98833.94;4990302;28;20198;-52
2021/12/02 09:56:52;;;;;;;1.50;1.40;;;;;;;5.55;100.00;98829.69;4990037;28;20587;-52
2021/12/02 09:59:26;;;;;;;1.63;1.53;;;;;;;5.56;100.00;98826.28;4998482;28;20185;-52
2021/12/02 10:01:57;;;;;;;1.97;1.73;;;;;;;5.59;100.00;98830.50;4997977;28;20196;-53
2021/12/02 10:04:23;;;;;;;1.83;1.60;;;;;;;5.63;100.00;98829.59;4997727;28;20225;-53
2021/12/02 10:07:02;;;;;;;2.20;1.90;;;;;;;5.65;100.00;98835.56;5000916;28;20217;-52
2021/12/02 10:09:38;;;;;;;2.07;1.83;;;;;;;5.67;100.00;98835.53;5002861;28;20901;-53
2021/12/02 10:12:13;;;;;;;2.10;1.90;;;;;;;5.67;100.00;98836.41;5026007;28;20652;-53
2021/12/02 10:14:41;;;;;;;1.80;1.70;;;;;;;5.70;100.00;98831.22;5005989;28;20276;-53
2021/12/02 10:17:16;;;;;;;3.90;2.30;;;;;;;5.73;100.00;98836.31;4994201;28;20237;-53
2021/12/02 10:20:17;;;;;;;2.50;2.30;;;;;;;5.79;100.00;98825.97;5000965;28;21164;-52
2021/12/02 10:23:17;;;;;;;2.33;2.13;;;;;;;5.82;100.00;98835.34;4999361;28;20192;-53
2021/12/02 10:25:55;;;;;;;4.03;2.63;;;;;;;5.83;100.00;98829.34;5001954;28;20197;-52
2021/12/02 10:28:21;;;;;;;2.43;1.90;;;;;;;5.85;100.00;98826.75;4991902;28;20683;-54
2021/12/02 10:30:53;;;;;;;2.37;2.10;;;;;;;5.86;100.00;98825.88;4997836;28;20402;-53
2021/12/02 10:33:57;;;;;;;3.03;2.00;;;;;;;5.87;100.00;98823.31;4991307;28;20232;-52
2021/12/02 10:36:39;;;;;;;1.93;1.77;;;;;;;5.87;100.00;98828.44;5016335;28;20277;-52
2021/12/02 10:39:19;;;;;;;3.77;2.27;;;;;;;5.88;100.00;98827.56;4989736;28;20247;-53
2021/12/02 10:41:46;;;;;;;2.73;2.20;;;;;;;5.89;100.00;98829.28;4997470;28;20220;-54
2021/12/02 10:44:12;;;;;;;2.60;2.07;;;;;;;5.91;100.00;98821.53;5005731;28;20193;-54
2021/12/02 10:46:56;;;;;;;2.43;2.00;;;;;;;5.97;100.00;98816.34;4997334;28;20717;-53
2021/12/02 10:49:24;;;;;;;2.00;1.80;;;;;;;6.01;100.00;98822.31;5004997;28;20193;-53
2021/12/02 10:51:53;;;;;;;2.60;1.77;;;;;;;6.08;100.00;98817.06;5000390;28;20247;-54
2021/12/02 10:54:21;;;;;;;2.00;1.80;;;;;;;6.15;100.00;98822.94;4992740;28;20260;-53
2021/12/02 10:56:50;;;;;;;2.37;1.87;;;;;;;6.22;100.00;98808.28;4997066;28;20214;-52
2021/12/02 10:59:34;;;;;;;2.80;2.13;;;;;;;6.30;100.00;98813.31;5001826;28;20222;-53
2021/12/02 11:02:07;;;;;;;2.47;1.87;;;;;;;6.35;100.00;98819.25;4999520;28;20195;-52
2021/12/02 11:04:42;;;;;;;2.03;1.77;;;;;;;6.38;100.00;98814.91;4995303;28;20260;-53
2021/12/02 11:07:19;;;;;;;2.53;1.70;;;;;;;6.42;100.00;98814.84;4998213;28;20242;-53
2021/12/02 11:09:45;;;;;;;2.73;2.03;;;;;;;6.40;100.00;98820.88;5000468;28;20752;-53
2021/12/02 11:12:17;;;;;;;2.87;2.10;;;;;;;6.42;100.00;98820.81;5007105;28;20250;-52
2021/12/02 11:14:50;;;;;;;2.63;2.00;;;;;;;6.40;100.00;98823.44;5007432;28;20194;-53
2021/12/02 11:17:16;;;;;;;2.10;1.90;;;;;;;6.38;100.00;98814.91;5006997;28;20216;-52
2021/12/02 11:19:47;;;;;;;2.30;1.90;;;;;;;6.38;100.00;98808.91;4993792;28;20197;-54
2021/12/02 11:22:16;;;;;;;3.70;2.00;;;;;;;6.38;100.00;98812.34;5001373;28;20879;-53
2021/12/02 11:24:43;;;;;;;2.40;2.20;;;;;;;6.40;100.00;98810.59;5014975;28;20280;-53
2021/12/02 11:27:16;;;;;;;2.37;1.97;;;;;;;6.49;100.00;98808.72;4993108;28;20330;-52
2021/12/02 11:30:00;;;;;;;2.93;2.00;;;;;;;6.55;100.00;98806.06;4997487;28;20201;-52
2021/12/02 11:32:31;;;;;;;2.13;1.93;;;;;;;6.54;100.00;98807.78;4994304;28;20899;-51
2021/12/02 11:35:13;;;;;;;2.10;1.97;;;;;;;6.56;100.00;98810.34;4990531;28;20195;-52
2021/12/02 11:37:42;;;;;;;2.37;2.00;;;;;;;6.54;100.00;98810.34;4988231;28;20209;-53
2021/12/02 11:40:12;;;;;;;3.27;2.50;;;;;;;6.49;100.00;98811.31;4995157;28;20232;-52
2021/12/02 11:42:39;;;;;;;3.10;2.43;;;;;;;6.44;100.00;98813.94;4994368;28;20198;-52
2021/12/02 11:45:07;;;;;;;2.93;2.30;;;;;;;6.42;100.00;98809.72;4998498;28;20198;-53
2021/12/02 11:47:34;;;;;;;2.50;2.30;;;;;;;6.44;100.00;98811.38;4999980;28;20266;-51
2021/12/02 11:49:59;;;;;;;2.90;2.70;;;;;;;6.48;100.00;98804.47;4999319;28;20204;-52